createdAt,value
2022-07-31T00:00:29.971Z,22.19
2022-07-31T00:02:59.250Z,22.19
2022-07-31T00:05:27.058Z,22.18
2022-07-31T00:07:54.980Z,22.17
2022-07-31T00:10:22.752Z,22.17
2022-07-31T00:12:50.265Z,22.16
2022-07-31T00:15:18.419Z,22.13
2022-07-31T00:17:46.367Z,22.14
2022-07-31T00:20:15.827Z,22.14
2022-07-31T00:22:47.285Z,22.14
2022-07-31T00:25:16.513Z,22.15
2022-07-31T00:27:43.997Z,22.11
2022-07-31T00:30:17.147Z,22.15
2022-07-31T00:32:46.035Z,22.15
2022-07-31T00:35:14.460Z,22.13
2022-07-31T00:37:44.754Z,22.13
2022-07-31T00:40:17.123Z,22.13
2022-07-31T00:42:44.940Z,22.08
2022-07-31T00:45:13.678Z,22.12
2022-07-31T00:47:42.018Z,22.11
2022-07-31T00:50:10.466Z,22.19
2022-07-31T00:52:38.943Z,22.20
2022-07-31T00:55:06.897Z,22.23
2022-07-31T00:57:34.395Z,22.30
2022-07-31T01:00:01.951Z,22.30
2022-07-31T01:02:31.911Z,22.31
2022-07-31T01:04:59.635Z,22.36
2022-07-31T01:07:27.073Z,22.32
2022-07-31T01:09:55.763Z,22.41
2022-07-31T01:12:38.956Z,22.65
2022-07-31T01:15:09.641Z,22.59
2022-07-31T01:17:39.025Z,22.53
2022-07-31T01:20:08.870Z,22.55
2022-07-31T01:23:01.162Z,22.83
2022-07-31T01:25:54.553Z,22.75
2022-07-31T01:29:05.208Z,22.95
2022-07-31T01:31:57.888Z,22.96
2022-07-31T01:34:50.301Z,22.95
2022-07-31T01:37:21.744Z,23.25
2022-07-31T01:40:04.316Z,23.03
2022-07-31T01:42:37.060Z,23.01
2022-07-31T01:45:07.562Z,22.99
2022-07-31T01:47:36.103Z,23.01
2022-07-31T01:50:05.906Z,23.04
2022-07-31T01:52:33.733Z,23.05
2022-07-31T01:55:03.151Z,23.11
2022-07-31T01:57:35.653Z,23.18
2022-07-31T02:00:33.899Z,23.27
2022-07-31T02:03:04.974Z,23.31
2022-07-31T02:05:40.830Z,23.31
2022-07-31T02:08:10.608Z,23.34
2022-07-31T02:10:41.206Z,23.42
2022-07-31T02:13:11.014Z,23.49
2022-07-31T02:15:39.027Z,23.52
2022-07-31T02:18:07.850Z,23.60
2022-07-31T02:20:36.899Z,23.62
2022-07-31T02:23:04.662Z,23.69
2022-07-31T02:25:35.889Z,23.77
2022-07-31T02:28:09.457Z,23.88
2022-07-31T02:30:39.964Z,23.86
2022-07-31T02:33:23.009Z,24.13
2022-07-31T02:35:54.173Z,24.05
2022-07-31T02:38:26.631Z,24.06
2022-07-31T02:40:59.467Z,24.12
2022-07-31T02:43:31.526Z,24.15
2022-07-31T02:46:03.809Z,24.17
2022-07-31T02:48:32.809Z,24.26
2022-07-31T02:51:04.931Z,24.36
2022-07-31T02:53:33.961Z,24.45
2022-07-31T02:56:05.069Z,24.55
2022-07-31T02:58:39.226Z,24.63
2022-07-31T03:01:06.942Z,24.75
2022-07-31T03:03:36.006Z,24.84
2022-07-31T03:06:03.953Z,25.00
2022-07-31T03:08:31.733Z,25.08
2022-07-31T03:11:03.949Z,25.20
2022-07-31T03:13:33.899Z,25.38
2022-07-31T03:16:04.659Z,25.53
2022-07-31T03:18:32.842Z,25.69
2022-07-31T03:21:00.298Z,25.83
2022-07-31T03:23:36.411Z,25.99
2022-07-31T03:26:10.804Z,26.29
2022-07-31T03:28:39.142Z,26.36
2022-07-31T03:31:10.862Z,26.48
2022-07-31T03:33:38.272Z,26.56
2022-07-31T03:36:06.157Z,26.63
2022-07-31T03:38:41.478Z,26.77
2022-07-31T03:41:16.732Z,26.99
2022-07-31T03:43:47.802Z,27.30
2022-07-31T03:46:23.885Z,27.78
2022-07-31T03:48:52.961Z,28.07
2022-07-31T03:51:22.478Z,28.25
2022-07-31T03:53:51.785Z,28.48
2022-07-31T03:56:45.954Z,28.78
2022-07-31T03:59:17.158Z,29.20
2022-07-31T04:01:58.018Z,29.52
2022-07-31T04:04:41.203Z,29.78
2022-07-31T04:07:08.946Z,29.95
2022-07-31T04:09:37.223Z,30.18
2022-07-31T04:12:06.293Z,30.48
2022-07-31T04:14:34.207Z,30.93
2022-07-31T04:17:01.921Z,31.42
2022-07-31T04:19:32.896Z,31.87
2022-07-31T04:22:00.983Z,32.23
2022-07-31T04:24:28.577Z,32.49
2022-07-31T04:27:17.697Z,32.58
2022-07-31T04:29:46.411Z,32.82
2022-07-31T04:32:15.663Z,32.98
2022-07-31T04:35:05.534Z,33.29
2022-07-31T04:37:33.774Z,33.58
2022-07-31T04:40:01.306Z,34.05
2022-07-31T04:42:28.947Z,34.46
2022-07-31T04:45:01.206Z,35.00
2022-07-31T04:47:30.471Z,35.46
2022-07-31T04:49:59.020Z,35.97
2022-07-31T04:52:27.528Z,36.20
2022-07-31T04:54:57.296Z,36.59
2022-07-31T04:57:25.214Z,36.85
2022-07-31T04:59:58.642Z,37.09
2022-07-31T05:02:32.700Z,37.35
2022-07-31T05:05:00.346Z,37.94
2022-07-31T05:07:33.021Z,38.10
2022-07-31T05:10:05.931Z,38.08
2022-07-31T05:12:33.691Z,37.96
2022-07-31T05:15:01.215Z,38.02
2022-07-31T05:17:31.207Z,38.07
2022-07-31T05:20:16.533Z,38.20
2022-07-31T05:23:06.443Z,38.55
2022-07-31T05:25:52.723Z,39.03
2022-07-31T05:28:29.920Z,39.36
2022-07-31T05:30:58.890Z,39.22
2022-07-31T05:33:27.347Z,39.06
2022-07-31T05:35:56.318Z,38.88
2022-07-31T05:38:23.964Z,38.77
2022-07-31T05:41:11.769Z,38.57
2022-07-31T05:44:01.999Z,38.52
2022-07-31T05:46:45.864Z,38.53
2022-07-31T05:49:13.719Z,38.51
2022-07-31T05:51:44.795Z,38.41
2022-07-31T05:54:12.549Z,38.32
2022-07-31T05:56:58.398Z,38.63
2022-07-31T05:59:33.170Z,38.88
2022-07-31T06:02:00.789Z,39.07
2022-07-31T06:04:29.458Z,39.51
2022-07-31T06:06:56.900Z,39.75
2022-07-31T06:09:25.069Z,39.55
2022-07-31T06:11:53.900Z,39.26
2022-07-31T06:14:21.263Z,39.33
2022-07-31T06:17:07.941Z,39.46
2022-07-31T06:19:37.224Z,39.58
2022-07-31T06:22:04.965Z,39.50
2022-07-31T06:24:33.908Z,39.45
2022-07-31T06:27:02.889Z,39.40
2022-07-31T06:29:41.263Z,39.28
2022-07-31T06:32:12.602Z,39.04
2022-07-31T06:34:41.153Z,38.69
2022-07-31T06:37:09.070Z,38.49
2022-07-31T06:39:54.357Z,38.32
2022-07-31T06:42:46.286Z,38.01
2022-07-31T06:45:25.097Z,37.76
2022-07-31T06:48:27.020Z,37.50
2022-07-31T06:51:29.095Z,37.27
2022-07-31T06:53:52.222Z,37.06
2022-07-31T06:56:20.997Z,36.95
2022-07-31T06:58:48.830Z,37.03
2022-07-31T07:01:16.359Z,37.04
2022-07-31T07:03:43.876Z,37.21
2022-07-31T07:06:11.645Z,37.25
2022-07-31T07:08:39.132Z,37.18
2022-07-31T07:11:11.455Z,37.01
2022-07-31T07:13:46.050Z,36.79
2022-07-31T07:16:18.100Z,36.60
2022-07-31T07:18:45.884Z,36.35
2022-07-31T07:21:13.718Z,36.21
2022-07-31T07:23:41.487Z,36.14
2022-07-31T07:26:19.098Z,36.05
2022-07-31T07:28:46.591Z,35.95
2022-07-31T07:31:14.093Z,35.87
2022-07-31T07:33:42.903Z,35.72
2022-07-31T07:36:24.155Z,35.54
2022-07-31T07:39:09.730Z,35.47
2022-07-31T07:41:38.987Z,35.30
2022-07-31T07:44:07.604Z,35.22
2022-07-31T07:46:35.374Z,35.21
2022-07-31T07:49:05.191Z,35.05
2022-07-31T07:52:10.089Z,34.96
2022-07-31T07:54:41.152Z,34.89
2022-07-31T07:57:31.782Z,34.78
2022-07-31T08:00:18.236Z,34.66
2022-07-31T08:03:46.803Z,34.54
2022-07-31T08:05:42.287Z,34.44
2022-07-31T08:08:10.505Z,34.36
2022-07-31T08:10:49.824Z,34.26
2022-07-31T08:13:28.447Z,34.23
2022-07-31T08:16:14.405Z,34.18
2022-07-31T08:18:44.639Z,34.12
2022-07-31T08:21:12.305Z,33.96
2022-07-31T08:23:39.792Z,33.90
2022-07-31T08:26:11.428Z,33.75
2022-07-31T08:28:39.381Z,33.79
2022-07-31T08:31:06.971Z,33.63
2022-07-31T08:33:44.816Z,33.53
2022-07-31T08:36:12.881Z,33.43
2022-07-31T08:38:40.247Z,33.29
2022-07-31T08:41:39.030Z,33.25
2022-07-31T08:44:07.877Z,33.19
2022-07-31T08:46:40.090Z,33.13
2022-07-31T08:49:11.229Z,33.14
2022-07-31T08:51:51.121Z,33.20
2022-07-31T08:54:35.998Z,33.24
2022-07-31T08:57:05.371Z,33.27
2022-07-31T08:59:44.268Z,33.37
2022-07-31T09:02:13.349Z,33.44
2022-07-31T09:04:57.473Z,33.45
2022-07-31T09:07:24.882Z,33.42
2022-07-31T09:09:52.634Z,33.43
2022-07-31T09:12:33.680Z,33.47
2022-07-31T09:15:25.210Z,33.53
2022-07-31T09:17:54.370Z,33.39
2022-07-31T09:20:26.270Z,33.50
2022-07-31T09:23:10.272Z,33.56
2022-07-31T09:25:57.315Z,33.54
2022-07-31T09:28:52.737Z,33.60
2022-07-31T09:31:20.969Z,33.47
2022-07-31T09:33:58.551Z,33.42
2022-07-31T09:36:46.320Z,33.49
2022-07-31T09:39:32.483Z,33.60
2022-07-31T09:42:23.713Z,33.68
2022-07-31T09:44:58.278Z,33.64
2022-07-31T09:47:32.932Z,33.73
2022-07-31T09:50:05.589Z,33.70
2022-07-31T09:52:33.703Z,33.56
2022-07-31T09:55:15.866Z,33.41
2022-07-31T09:58:00.560Z,33.56
2022-07-31T10:00:34.762Z,33.41
2022-07-31T10:03:04.326Z,33.20
2022-07-31T10:05:33.314Z,33.08
2022-07-31T10:08:03.161Z,32.99
2022-07-31T10:10:53.685Z,32.96
2022-07-31T10:13:27.636Z,32.88
2022-07-31T10:16:00.245Z,32.91
2022-07-31T10:19:04.276Z,32.97
2022-07-31T10:22:00.087Z,32.82
2022-07-31T10:24:33.621Z,32.83
2022-07-31T10:27:09.132Z,32.79
2022-07-31T10:29:42.356Z,32.54
2022-07-31T10:32:10.573Z,32.48
2022-07-31T10:34:58.206Z,32.38
2022-07-31T10:37:53.750Z,32.45
2022-07-31T10:41:04.209Z,32.40
2022-07-31T10:43:55.640Z,32.51
2022-07-31T10:46:39.630Z,32.09
2022-07-31T10:49:16.184Z,32.11
2022-07-31T10:52:07.125Z,32.04
2022-07-31T10:54:44.853Z,32.04
2022-07-31T10:57:55.234Z,32.07
2022-07-31T11:00:46.277Z,31.82
2022-07-31T11:03:46.623Z,31.90
2022-07-31T11:06:25.090Z,31.70
2022-07-31T11:08:57.777Z,31.66
2022-07-31T11:12:00.431Z,31.57
2022-07-31T11:14:39.196Z,31.53
2022-07-31T11:18:25.198Z,31.65
2022-07-31T11:20:32.584Z,31.36
2022-07-31T11:23:01.780Z,31.39
2022-07-31T11:25:31.001Z,31.37
2022-07-31T11:28:10.104Z,31.32
2022-07-31T11:30:57.208Z,31.55
2022-07-31T11:33:42.936Z,31.44
2022-07-31T11:36:25.072Z,31.28
2022-07-31T11:38:54.378Z,31.21
2022-07-31T11:41:22.879Z,31.18
2022-07-31T11:43:52.112Z,31.23
2022-07-31T11:46:26.249Z,31.30
2022-07-31T11:48:57.456Z,31.23
2022-07-31T11:51:26.832Z,31.14
2022-07-31T11:53:57.302Z,31.12
2022-07-31T11:56:27.673Z,31.13
2022-07-31T11:58:57.725Z,31.03
2022-07-31T12:01:29.929Z,31.09
2022-07-31T12:04:01.617Z,30.98
2022-07-31T12:06:38.789Z,30.98
2022-07-31T12:09:06.437Z,30.84
2022-07-31T12:11:34.322Z,30.78
2022-07-31T12:14:01.962Z,30.72
2022-07-31T12:16:40.520Z,30.83
2022-07-31T12:19:08.140Z,30.49
2022-07-31T12:21:40.777Z,30.32
2022-07-31T12:24:13.606Z,30.25
2022-07-31T12:26:49.183Z,30.13
2022-07-31T12:29:16.711Z,29.84
2022-07-31T12:31:50.527Z,29.70
2022-07-31T12:34:34.221Z,29.91
2022-07-31T12:37:04.559Z,29.53
2022-07-31T12:39:54.493Z,29.56
2022-07-31T12:42:31.252Z,29.48
2022-07-31T12:45:19.370Z,29.20
2022-07-31T12:47:51.559Z,29.10
2022-07-31T12:50:25.026Z,28.99
2022-07-31T12:52:53.618Z,28.68
2022-07-31T12:55:21.185Z,28.45
2022-07-31T12:57:51.402Z,28.39
2022-07-31T13:00:23.283Z,28.37
2022-07-31T13:02:55.903Z,28.41
2022-07-31T13:05:24.029Z,28.11
2022-07-31T13:07:51.926Z,27.82
2022-07-31T13:10:23.934Z,27.79
2022-07-31T13:12:53.730Z,27.73
2022-07-31T13:15:29.879Z,27.66
2022-07-31T13:17:59.715Z,27.63
2022-07-31T13:20:27.274Z,27.65
2022-07-31T13:22:54.715Z,27.46
2022-07-31T13:25:22.274Z,27.45
2022-07-31T13:27:49.646Z,27.52
2022-07-31T13:30:17.136Z,27.38
2022-07-31T13:32:44.643Z,27.02
2022-07-31T13:35:26.958Z,27.01
2022-07-31T13:37:55.782Z,26.97
2022-07-31T13:40:43.416Z,26.88
2022-07-31T13:43:11.370Z,27.07
2022-07-31T13:45:38.965Z,26.97
2022-07-31T13:48:09.200Z,26.72
2022-07-31T13:50:41.676Z,26.82
2022-07-31T13:53:10.159Z,26.63
2022-07-31T13:55:37.851Z,26.56
2022-07-31T13:58:05.483Z,26.54
2022-07-31T14:00:32.975Z,26.49
2022-07-31T14:03:00.536Z,26.46
2022-07-31T14:05:28.329Z,26.44
2022-07-31T14:07:56.475Z,26.46
2022-07-31T14:10:48.416Z,26.42
2022-07-31T14:13:19.148Z,26.36
2022-07-31T14:15:47.694Z,26.33
2022-07-31T14:18:16.032Z,26.41
2022-07-31T14:20:43.580Z,26.32
2022-07-31T14:23:11.050Z,26.34
2022-07-31T14:25:39.855Z,26.25
2022-07-31T14:28:09.000Z,26.22
2022-07-31T14:30:37.631Z,26.21
2022-07-31T14:33:05.421Z,26.04
2022-07-31T14:35:33.872Z,26.12
2022-07-31T14:38:04.239Z,26.18
2022-07-31T14:40:32.128Z,26.17
2022-07-31T14:42:59.906Z,26.19
2022-07-31T14:45:27.498Z,26.26
2022-07-31T14:47:56.232Z,26.25
2022-07-31T14:50:24.539Z,26.25
2022-07-31T14:52:52.155Z,26.14
2022-07-31T14:55:23.703Z,26.11
2022-07-31T14:57:52.384Z,26.06
2022-07-31T15:00:20.222Z,25.89
2022-07-31T15:02:49.661Z,25.91
2022-07-31T15:06:39.222Z,25.87
2022-07-31T15:08:04.986Z,25.83
2022-07-31T15:10:32.601Z,25.80
2022-07-31T15:13:00.257Z,25.76
2022-07-31T15:15:28.409Z,25.77
2022-07-31T15:17:56.304Z,25.86
2022-07-31T15:20:32.610Z,25.85
2022-07-31T15:23:01.918Z,25.73
2022-07-31T15:25:29.713Z,25.63
2022-07-31T15:27:57.328Z,25.58
2022-07-31T15:30:24.990Z,25.55
2022-07-31T15:32:53.528Z,25.57
2022-07-31T15:35:21.215Z,25.53
2022-07-31T15:37:49.811Z,25.51
2022-07-31T15:40:17.898Z,25.51
2022-07-31T15:42:47.195Z,25.48
2022-07-31T15:45:17.002Z,25.44
2022-07-31T15:47:45.572Z,25.40
2022-07-31T15:50:15.435Z,25.45
2022-07-31T15:52:43.146Z,25.38
2022-07-31T15:55:11.972Z,25.44
2022-07-31T15:57:39.521Z,25.41
2022-07-31T16:00:10.650Z,25.43
2022-07-31T16:02:42.695Z,25.45
2022-07-31T16:05:23.988Z,25.48
2022-07-31T16:08:33.443Z,25.56
2022-07-31T16:10:48.221Z,25.54
2022-07-31T16:13:18.688Z,25.43
2022-07-31T16:15:46.232Z,25.43
2022-07-31T16:18:18.074Z,25.37
2022-07-31T16:20:46.231Z,25.26
2022-07-31T16:23:13.714Z,25.24
2022-07-31T16:25:41.371Z,25.23
2022-07-31T16:28:08.796Z,25.15
2022-07-31T16:30:36.332Z,25.13
2022-07-31T16:33:03.891Z,25.18
2022-07-31T16:35:31.333Z,25.09
2022-07-31T16:37:58.769Z,25.07
2022-07-31T16:40:30.814Z,25.07
2022-07-31T16:43:47.392Z,25.03
2022-07-31T16:45:53.306Z,25.02
2022-07-31T16:48:21.020Z,24.99
2022-07-31T16:50:52.999Z,24.93
2022-07-31T16:54:11.337Z,24.95
2022-07-31T16:56:14.760Z,25.59
2022-07-31T16:58:44.211Z,24.95
2022-07-31T17:01:53.941Z,24.82
2022-07-31T17:04:03.827Z,24.96
2022-07-31T17:06:36.459Z,24.79
2022-07-31T17:09:16.569Z,25.42
2022-07-31T17:11:51.324Z,25.04
2022-07-31T17:14:23.980Z,24.85
2022-07-31T17:16:53.831Z,24.75
2022-07-31T17:19:42.301Z,24.73
2022-07-31T17:22:17.488Z,24.58
2022-07-31T17:24:51.295Z,25.12
2022-07-31T17:27:20.294Z,24.63
2022-07-31T17:29:47.995Z,24.51
2022-07-31T17:32:17.732Z,24.29
2022-07-31T17:34:46.599Z,24.31
2022-07-31T17:37:14.352Z,24.21
2022-07-31T17:39:41.878Z,24.06
2022-07-31T17:42:09.848Z,24.13
2022-07-31T17:44:39.849Z,24.09
2022-07-31T17:47:08.418Z,23.90
2022-07-31T17:49:36.845Z,23.83
2022-07-31T17:52:04.846Z,23.71
2022-07-31T17:54:34.729Z,23.58
2022-07-31T17:57:03.322Z,23.55
2022-07-31T17:59:31.144Z,23.37
2022-07-31T18:02:04.225Z,23.40
2022-07-31T18:04:35.359Z,23.39
2022-07-31T18:07:04.561Z,23.27
2022-07-31T18:09:32.762Z,23.22
2022-07-31T18:12:00.371Z,23.17
2022-07-31T18:14:28.195Z,23.10
2022-07-31T18:16:55.826Z,23.05
2022-07-31T18:19:23.400Z,23.01
2022-07-31T18:21:51.623Z,22.98
2022-07-31T18:24:20.672Z,22.88
2022-07-31T18:26:49.476Z,22.82
2022-07-31T18:29:18.000Z,22.79
2022-07-31T18:31:45.937Z,22.78
2022-07-31T18:34:14.136Z,22.69
2022-07-31T18:36:41.898Z,22.69
2022-07-31T18:39:09.528Z,22.60
2022-07-31T18:41:40.029Z,22.57
2022-07-31T18:44:07.698Z,22.53
2022-07-31T18:46:35.756Z,22.48
2022-07-31T18:49:04.803Z,22.45
2022-07-31T18:51:32.934Z,22.46
2022-07-31T18:54:01.682Z,22.39
2022-07-31T18:56:29.342Z,22.38
2022-07-31T18:58:57.273Z,22.36
2022-07-31T19:01:24.855Z,22.32
2022-07-31T19:03:53.477Z,22.32
2022-07-31T19:06:22.885Z,22.30
2022-07-31T19:08:52.373Z,22.28
2022-07-31T19:11:20.557Z,22.24
2022-07-31T19:13:48.387Z,22.28
2022-07-31T19:16:17.762Z,22.29
2022-07-31T19:18:45.746Z,22.24
2022-07-31T19:21:41.167Z,22.15
2022-07-31T19:24:06.650Z,22.15
2022-07-31T19:26:34.125Z,22.06
2022-07-31T19:29:01.542Z,22.14
2022-07-31T19:31:29.027Z,22.05
2022-07-31T19:33:56.535Z,22.06
2022-07-31T19:36:23.990Z,22.04
2022-07-31T19:38:51.453Z,21.96
2022-07-31T19:41:19.005Z,21.90
2022-07-31T19:43:46.730Z,21.89
2022-07-31T19:46:14.114Z,21.79
2022-07-31T19:48:46.258Z,21.87
2022-07-31T19:51:14.743Z,21.83
2022-07-31T19:53:43.071Z,21.82
2022-07-31T19:58:41.400Z,21.75
2022-07-31T20:01:10.758Z,21.77
2022-07-31T20:03:38.354Z,21.71
2022-07-31T20:06:06.651Z,21.73
2022-07-31T20:08:34.674Z,21.69
2022-07-31T20:11:04.536Z,21.70
2022-07-31T20:13:37.982Z,21.72
2022-07-31T20:16:05.760Z,22.15
2022-07-31T20:18:33.253Z,21.80
2022-07-31T20:21:07.550Z,21.94
2022-07-31T20:23:38.941Z,21.82
2022-07-31T20:26:08.517Z,21.73
2022-07-31T20:28:36.254Z,21.70
2022-07-31T20:31:03.874Z,21.73
2022-07-31T20:33:31.358Z,21.80
2022-07-31T20:35:58.787Z,21.80
2022-07-31T20:40:55.833Z,21.83
2022-07-31T20:43:25.365Z,21.82
2022-07-31T20:45:53.845Z,21.86
2022-07-31T20:48:24.605Z,21.86
2022-07-31T20:50:52.659Z,21.78
2022-07-31T20:53:21.178Z,21.77
2022-07-31T20:55:50.561Z,21.68
2022-07-31T20:58:19.817Z,21.61
2022-07-31T21:00:48.759Z,21.56
2022-07-31T21:03:17.309Z,21.59
2022-07-31T21:05:45.783Z,21.60
2022-07-31T21:08:13.320Z,21.62
2022-07-31T21:10:40.829Z,21.64
2022-07-31T21:13:08.617Z,21.57
2022-07-31T21:15:41.938Z,21.61
2022-07-31T21:18:19.199Z,21.65
2022-07-31T21:20:51.615Z,21.60
2022-07-31T21:23:20.305Z,22.17
2022-07-31T21:25:48.260Z,21.76
2022-07-31T21:28:15.890Z,21.71
2022-07-31T21:30:43.479Z,21.64
2022-07-31T21:33:11.039Z,21.64
2022-07-31T21:35:40.287Z,21.68
2022-07-31T21:38:12.739Z,21.67
2022-07-31T21:40:40.749Z,21.73
2022-07-31T21:43:09.703Z,21.72
2022-07-31T21:45:50.980Z,21.58
2022-07-31T21:48:25.787Z,21.72
2022-07-31T21:50:54.719Z,21.74
2022-07-31T21:53:23.497Z,21.72
2022-07-31T21:55:51.309Z,21.76
2022-07-31T21:58:19.053Z,21.73
2022-07-31T22:00:46.650Z,21.72
2022-07-31T22:03:14.205Z,21.81
2022-07-31T22:05:59.962Z,21.84
2022-07-31T22:08:27.662Z,21.82
2022-07-31T22:10:55.151Z,21.86
2022-07-31T22:13:22.622Z,21.85
2022-07-31T22:15:58.439Z,21.85
2022-07-31T22:18:30.766Z,21.81
2022-07-31T22:23:27.750Z,21.78
2022-07-31T22:25:55.516Z,21.76
2022-07-31T22:28:24.420Z,21.75
2022-07-31T22:30:52.820Z,21.73
2022-07-31T22:33:21.274Z,21.69
2022-07-31T22:35:59.586Z,21.71
2022-07-31T22:38:29.140Z,21.73
2022-07-31T22:40:57.409Z,21.81
2022-07-31T22:44:10.710Z,21.77
2022-07-31T22:46:13.398Z,21.84
2022-07-31T22:48:41.345Z,21.85
2022-07-31T22:51:14.247Z,21.87
2022-07-31T22:53:42.105Z,21.84
2022-07-31T22:56:09.606Z,21.88
2022-07-31T22:58:37.111Z,21.83
2022-07-31T23:01:04.504Z,21.87
2022-07-31T23:03:31.993Z,21.86
2022-07-31T23:06:02.585Z,21.88
2022-07-31T23:08:55.058Z,22.01
2022-07-31T23:11:24.876Z,21.96
2022-07-31T23:13:52.541Z,21.84
2022-07-31T23:16:20.670Z,21.85
2022-07-31T23:18:48.812Z,21.88
2022-07-31T23:21:17.395Z,21.83
2022-07-31T23:23:48.998Z,21.88
2022-07-31T23:26:21.181Z,21.92
2022-07-31T23:28:48.928Z,21.90
2022-07-31T23:31:17.866Z,21.89
2022-07-31T23:33:46.038Z,21.94
2022-07-31T23:36:14.567Z,21.79
2022-07-31T23:38:43.125Z,21.75
2022-07-31T23:41:10.957Z,21.76
2022-07-31T23:43:38.558Z,21.71
2022-07-31T23:46:06.628Z,21.73
2022-07-31T23:48:37.234Z,21.86
2022-07-31T23:51:07.025Z,21.79
2022-07-31T23:53:34.401Z,21.78
2022-07-31T23:56:01.810Z,21.78
2022-07-31T23:58:29.518Z,21.78
